createdAt,value
2019-03-24T00:00:31.945Z,10.43
2019-03-24T00:03:02.707Z,11.17
2019-03-24T00:05:33.408Z,10.67
2019-03-24T00:08:04.197Z,10.90
2019-03-24T00:10:34.905Z,11.50
2019-03-24T00:13:05.590Z,9.97
2019-03-24T00:15:36.264Z,9.93
2019-03-24T00:18:06.947Z,10.67
2019-03-24T00:20:37.697Z,11.37
2019-03-24T00:23:08.393Z,9.90
2019-03-24T00:25:39.063Z,11.80
2019-03-24T00:28:09.771Z,10.70
2019-03-24T00:30:40.546Z,11.27
2019-03-24T00:33:11.227Z,11.37
2019-03-24T00:35:41.929Z,11.47
2019-03-24T00:38:12.587Z,11.40
2019-03-24T00:40:43.487Z,10.77
2019-03-24T00:43:14.146Z,10.93
2019-03-24T00:45:44.870Z,10.73
2019-03-24T00:48:15.583Z,11.23
2019-03-24T00:50:47.248Z,12.13
2019-03-24T00:53:17.935Z,11.30
2019-03-24T00:55:48.611Z,10.17
2019-03-24T00:58:19.268Z,9.80
2019-03-24T01:00:51.867Z,11.27
2019-03-24T01:03:22.612Z,10.30
2019-03-24T01:05:53.291Z,9.20
2019-03-24T01:08:23.992Z,9.90
2019-03-24T01:10:54.756Z,10.70
2019-03-24T01:13:25.447Z,9.83
2019-03-24T01:15:56.143Z,9.23
2019-03-24T01:18:26.799Z,10.00
2019-03-24T01:20:57.483Z,8.47
2019-03-24T01:23:28.183Z,8.50
2019-03-24T01:25:58.875Z,8.70
2019-03-24T01:28:29.563Z,9.57
2019-03-24T01:31:00.239Z,7.40
2019-03-24T01:33:30.917Z,7.50
2019-03-24T01:36:01.630Z,7.70
2019-03-24T01:38:32.301Z,8.63
2019-03-24T01:41:03.000Z,7.97
2019-03-24T01:43:33.979Z,8.23
2019-03-24T01:46:05.694Z,6.43
2019-03-24T01:48:36.385Z,7.97
2019-03-24T01:51:07.099Z,6.80
2019-03-24T01:53:37.792Z,7.13
2019-03-24T01:56:08.484Z,6.73
2019-03-24T01:58:39.144Z,8.60
2019-03-24T02:01:09.828Z,7.43
2019-03-24T02:03:40.511Z,7.00
2019-03-24T02:06:11.235Z,7.13
2019-03-24T02:08:41.997Z,7.40
2019-03-24T02:11:12.701Z,6.83
2019-03-24T02:13:43.400Z,6.73
2019-03-24T02:16:14.135Z,7.87
2019-03-24T02:18:44.866Z,7.43
2019-03-24T02:21:15.667Z,8.27
2019-03-24T02:23:46.358Z,6.57
2019-03-24T02:26:17.041Z,7.57
2019-03-24T02:28:47.807Z,7.63
2019-03-24T02:31:18.498Z,7.03
2019-03-24T02:33:49.175Z,6.80
2019-03-24T02:36:19.838Z,7.67
2019-03-24T02:38:50.502Z,7.27
2019-03-24T02:41:21.193Z,8.20
2019-03-24T02:43:51.861Z,9.13
2019-03-24T02:46:24.615Z,7.47
2019-03-24T02:48:54.904Z,7.30
2019-03-24T02:51:25.600Z,8.43
2019-03-24T02:53:56.269Z,7.90
2019-03-24T02:56:26.952Z,7.90
2019-03-24T02:58:57.659Z,9.80
2019-03-24T03:01:28.416Z,8.80
2019-03-24T03:03:59.070Z,8.30
2019-03-24T03:06:29.745Z,8.90
2019-03-24T03:09:00.462Z,8.30
2019-03-24T03:11:32.783Z,7.20
2019-03-24T03:14:03.448Z,7.80
2019-03-24T03:16:38.578Z,7.80
2019-03-24T03:19:06.569Z,7.77
2019-03-24T03:21:37.258Z,9.23
2019-03-24T03:24:07.915Z,8.70
2019-03-24T03:26:38.608Z,8.83
2019-03-24T03:29:09.256Z,9.03
2019-03-24T03:31:39.977Z,8.00
2019-03-24T03:34:10.667Z,10.30
2019-03-24T03:36:42.397Z,9.20
2019-03-24T03:39:13.069Z,10.20
2019-03-24T03:41:43.774Z,9.40
2019-03-24T03:44:14.419Z,9.90
2019-03-24T03:46:52.873Z,10.17
2019-03-24T03:49:20.751Z,10.13
2019-03-24T03:51:51.423Z,9.10
2019-03-24T03:54:22.099Z,9.73
2019-03-24T03:56:52.780Z,10.70
2019-03-24T03:59:23.462Z,9.77
2019-03-24T04:01:54.136Z,8.87
2019-03-24T04:04:24.817Z,9.90
2019-03-24T04:06:55.503Z,9.47
2019-03-24T04:09:26.163Z,10.20
2019-03-24T04:11:56.861Z,9.37
2019-03-24T04:14:27.516Z,9.43
2019-03-24T04:17:07.073Z,9.83
2019-03-24T04:19:30.606Z,9.77
2019-03-24T04:22:01.343Z,10.00
2019-03-24T04:24:32.010Z,9.60
2019-03-24T04:27:02.699Z,9.87
2019-03-24T04:29:33.456Z,8.97
2019-03-24T04:32:05.136Z,9.57
2019-03-24T04:34:35.799Z,9.27
2019-03-24T04:37:06.471Z,9.60
2019-03-24T04:39:37.136Z,9.60
2019-03-24T04:42:07.824Z,10.00
2019-03-24T04:44:38.499Z,9.80
2019-03-24T04:47:16.594Z,10.03
2019-03-24T04:49:41.559Z,9.47
2019-03-24T04:52:13.269Z,9.77
2019-03-24T04:54:43.951Z,9.60
2019-03-24T04:57:14.640Z,9.80
2019-03-24T04:59:45.315Z,9.63
2019-03-24T05:02:15.982Z,9.10
2019-03-24T05:04:46.683Z,8.97
2019-03-24T05:07:17.382Z,9.47
2019-03-24T05:09:48.240Z,8.00
2019-03-24T05:12:18.924Z,10.30
2019-03-24T05:14:49.571Z,9.17
2019-03-24T05:17:26.965Z,10.13
2019-03-24T05:19:52.631Z,8.63
2019-03-24T05:22:23.304Z,8.90
2019-03-24T05:24:53.959Z,9.40
2019-03-24T05:27:24.673Z,8.63
2019-03-24T05:29:55.337Z,8.13
2019-03-24T05:32:26.039Z,8.47
2019-03-24T05:34:56.708Z,8.33
2019-03-24T05:37:27.383Z,7.93
2019-03-24T05:39:58.140Z,9.60
2019-03-24T05:42:28.859Z,9.80
2019-03-24T05:44:59.532Z,8.27
2019-03-24T05:47:37.032Z,7.37
2019-03-24T05:50:02.591Z,8.10
2019-03-24T05:52:33.261Z,7.37
2019-03-24T05:55:04.008Z,6.93
2019-03-24T05:57:34.749Z,6.70
2019-03-24T06:00:06.336Z,6.23
2019-03-24T06:02:36.999Z,6.70
2019-03-24T06:05:07.796Z,7.23
2019-03-24T06:07:39.431Z,6.70
2019-03-24T06:10:10.274Z,6.40
2019-03-24T06:12:40.945Z,6.47
2019-03-24T06:15:11.859Z,7.33
2019-03-24T06:17:47.724Z,6.70
2019-03-24T06:20:17.767Z,6.90
2019-03-24T06:22:48.446Z,6.30
2019-03-24T06:25:19.123Z,7.63
2019-03-24T06:27:49.813Z,5.97
2019-03-24T06:30:20.535Z,6.30
2019-03-24T06:32:51.207Z,7.37
2019-03-24T06:35:21.899Z,6.10
2019-03-24T06:37:52.583Z,6.43
2019-03-24T06:40:23.268Z,5.60
2019-03-24T06:42:53.943Z,6.83
2019-03-24T06:45:28.707Z,6.83
2019-03-24T06:47:59.578Z,6.30
2019-03-24T06:50:30.243Z,7.17
2019-03-24T06:53:00.918Z,6.60
2019-03-24T06:55:31.607Z,8.23
2019-03-24T06:58:02.310Z,6.30
2019-03-24T07:00:32.999Z,7.27
2019-03-24T07:03:03.747Z,6.10
2019-03-24T07:05:34.469Z,6.07
2019-03-24T07:08:07.995Z,7.13
2019-03-24T07:10:38.685Z,5.27
2019-03-24T07:13:09.351Z,5.40
2019-03-24T07:15:40.058Z,5.43
2019-03-24T07:18:10.805Z,5.83
2019-03-24T07:20:41.524Z,5.60
2019-03-24T07:23:12.215Z,5.93
2019-03-24T07:25:42.931Z,6.30
2019-03-24T07:28:13.611Z,5.70
2019-03-24T07:30:44.327Z,6.83
2019-03-24T07:33:15.031Z,7.17
2019-03-24T07:35:45.839Z,6.13
2019-03-24T07:38:16.518Z,6.60
2019-03-24T07:40:47.200Z,6.40
2019-03-24T07:43:18.830Z,7.33
2019-03-24T07:45:49.575Z,7.20
2019-03-24T07:48:20.247Z,6.53
2019-03-24T07:50:50.952Z,7.67
2019-03-24T07:53:21.626Z,7.60
2019-03-24T07:55:52.330Z,7.13
2019-03-24T07:58:23.022Z,6.20
2019-03-24T08:00:53.731Z,7.73
2019-03-24T08:03:24.395Z,7.60
2019-03-24T08:05:55.120Z,8.87
2019-03-24T08:08:25.950Z,7.30
2019-03-24T08:10:56.648Z,7.50
2019-03-24T08:13:27.328Z,7.43
2019-03-24T08:15:58.992Z,8.17
2019-03-24T08:18:30.336Z,7.93
2019-03-24T08:21:01.176Z,8.10
2019-03-24T08:23:31.843Z,9.07
2019-03-24T08:26:02.543Z,8.50
2019-03-24T08:28:33.255Z,8.10
2019-03-24T08:31:03.959Z,8.23
2019-03-24T08:33:34.651Z,7.97
2019-03-24T08:36:05.366Z,8.67
2019-03-24T08:38:36.076Z,9.40
2019-03-24T08:41:06.802Z,9.80
2019-03-24T08:43:37.496Z,8.10
2019-03-24T08:46:09.187Z,12.27
2019-03-24T08:48:41.075Z,12.83
2019-03-24T08:51:12.047Z,11.67
2019-03-24T08:53:42.733Z,9.07
2019-03-24T08:56:13.462Z,10.33
2019-03-24T08:58:44.167Z,9.50
2019-03-24T09:01:14.871Z,9.00
2019-03-24T09:03:45.571Z,9.23
2019-03-24T09:06:16.303Z,7.80
2019-03-24T09:08:48.914Z,8.60
2019-03-24T09:11:19.460Z,7.97
2019-03-24T09:13:50.147Z,6.83
2019-03-24T09:16:20.870Z,7.80
2019-03-24T09:18:52.931Z,7.20
2019-03-24T09:21:23.807Z,7.10
2019-03-24T09:23:54.520Z,6.73
2019-03-24T09:26:25.298Z,8.20
2019-03-24T09:28:59.172Z,6.60
2019-03-24T09:31:29.364Z,8.83
2019-03-24T09:34:00.044Z,6.73
2019-03-24T09:36:32.527Z,7.27
2019-03-24T09:39:04.741Z,6.37
2019-03-24T09:41:35.476Z,6.73
2019-03-24T09:44:06.182Z,6.50
2019-03-24T09:46:37.880Z,6.10
2019-03-24T09:49:08.619Z,6.60
2019-03-24T09:51:39.324Z,6.80
2019-03-24T09:54:10.048Z,6.00
2019-03-24T09:56:40.776Z,6.17
2019-03-24T09:59:11.456Z,6.70
2019-03-24T10:01:42.182Z,6.93
2019-03-24T10:04:12.865Z,6.10
2019-03-24T10:06:43.584Z,6.40
2019-03-24T10:09:14.285Z,5.83
2019-03-24T10:11:45.056Z,5.90
2019-03-24T10:14:15.762Z,5.70
2019-03-24T10:16:46.474Z,5.87
2019-03-24T10:19:17.162Z,5.43
2019-03-24T10:21:47.856Z,5.20
2019-03-24T10:24:18.545Z,5.13
2019-03-24T10:26:49.240Z,5.23
2019-03-24T10:29:19.952Z,5.00
2019-03-24T10:31:50.728Z,4.90
2019-03-24T10:34:21.390Z,5.80
2019-03-24T10:36:52.125Z,6.37
2019-03-24T10:39:22.864Z,5.47
2019-03-24T10:41:53.604Z,5.27
2019-03-24T10:44:34.606Z,5.67
2019-03-24T10:47:05.451Z,4.43
2019-03-24T10:49:36.140Z,4.80
2019-03-24T10:52:06.878Z,6.00
2019-03-24T10:54:37.544Z,6.30
2019-03-24T10:57:08.223Z,6.07
2019-03-24T10:59:38.932Z,4.80
2019-03-24T11:02:09.634Z,5.03
2019-03-24T11:04:40.332Z,5.03
2019-03-24T11:07:11.056Z,4.43
2019-03-24T11:09:41.726Z,5.03
2019-03-24T11:12:12.426Z,5.13
2019-03-24T11:14:43.116Z,4.70
2019-03-24T11:17:13.818Z,4.23
2019-03-24T11:19:44.495Z,4.63
2019-03-24T11:22:15.216Z,4.70
2019-03-24T11:24:45.926Z,4.53
2019-03-24T11:27:16.685Z,4.73
2019-03-24T11:29:47.405Z,4.53
2019-03-24T11:32:18.167Z,4.50
2019-03-24T11:34:49.354Z,5.13
2019-03-24T11:37:20.283Z,4.50
2019-03-24T11:39:50.971Z,4.40
2019-03-24T11:42:21.780Z,3.97
2019-03-24T11:44:52.481Z,4.00
2019-03-24T11:47:26.803Z,4.17
2019-03-24T11:49:55.599Z,4.37
2019-03-24T11:52:26.327Z,3.97
2019-03-24T11:54:57.024Z,3.60
2019-03-24T11:57:27.815Z,4.20
2019-03-24T11:59:58.509Z,3.50
2019-03-24T12:02:29.292Z,3.43
2019-03-24T12:05:00.179Z,3.50
2019-03-24T12:07:31.138Z,3.87
2019-03-24T12:10:01.901Z,4.00
2019-03-24T12:12:32.688Z,4.27
2019-03-24T12:15:05.354Z,4.00
2019-03-24T12:17:35.871Z,3.50
2019-03-24T12:20:07.520Z,3.33
2019-03-24T12:22:38.276Z,2.83
2019-03-24T12:25:09.109Z,3.27
2019-03-24T12:27:39.802Z,2.67
2019-03-24T12:30:11.130Z,3.30
2019-03-24T12:32:41.883Z,3.20
2019-03-24T12:35:12.603Z,2.77
2019-03-24T12:37:43.323Z,2.90
2019-03-24T12:40:15.426Z,2.50
2019-03-24T12:42:46.123Z,2.30
2019-03-24T12:45:16.936Z,2.20
2019-03-24T12:47:47.658Z,2.60
2019-03-24T12:50:18.334Z,2.50
2019-03-24T12:52:49.092Z,2.13
2019-03-24T12:55:22.083Z,2.07
2019-03-24T12:57:52.851Z,3.00
2019-03-24T13:00:40.195Z,2.50
2019-03-24T13:03:10.935Z,2.40
2019-03-24T13:05:41.633Z,2.40
2019-03-24T13:08:22.053Z,2.47
2019-03-24T13:10:52.732Z,2.00
2019-03-24T13:13:23.419Z,2.67
2019-03-24T13:15:54.115Z,2.77
2019-03-24T13:18:24.840Z,2.23
2019-03-24T13:20:55.571Z,2.47
2019-03-24T13:23:26.288Z,2.23
2019-03-24T13:25:56.966Z,2.30
2019-03-24T13:28:27.717Z,2.50
2019-03-24T13:30:58.468Z,2.30
2019-03-24T13:33:29.254Z,2.53
2019-03-24T13:36:11.949Z,2.70
2019-03-24T13:38:42.685Z,2.63
2019-03-24T13:41:13.410Z,2.63
2019-03-24T13:43:44.107Z,2.40
2019-03-24T13:46:14.840Z,2.40
2019-03-24T13:48:45.732Z,2.40
2019-03-24T13:51:16.399Z,3.07
2019-03-24T13:53:47.105Z,3.00
2019-03-24T13:56:17.808Z,2.40
2019-03-24T13:58:48.519Z,3.23
2019-03-24T14:01:19.320Z,3.23
2019-03-24T14:03:50.056Z,3.70
2019-03-24T14:06:20.747Z,2.80
2019-03-24T14:08:51.451Z,3.50
2019-03-24T14:11:24.154Z,2.90
2019-03-24T14:13:54.521Z,2.37
2019-03-24T14:16:25.362Z,2.00
2019-03-24T14:18:57.067Z,2.50
2019-03-24T14:21:27.777Z,3.17
2019-03-24T14:23:58.538Z,2.20
2019-03-24T14:27:03.812Z,1.70
2019-03-24T14:29:34.629Z,1.97
2019-03-24T14:32:05.344Z,1.97
2019-03-24T14:34:36.047Z,2.87
2019-03-24T14:37:06.739Z,1.97
2019-03-24T14:39:37.420Z,1.50
2019-03-24T14:42:08.103Z,1.60
2019-03-24T14:44:38.835Z,2.10
2019-03-24T14:47:10.507Z,2.30
2019-03-24T14:49:41.219Z,2.13
2019-03-24T14:52:11.952Z,1.93
2019-03-24T14:54:43.650Z,2.13
2019-03-24T14:57:14.315Z,1.50
2019-03-24T14:59:45.522Z,1.50
2019-03-24T15:02:17.215Z,2.40
2019-03-24T15:04:48.247Z,1.67
2019-03-24T15:07:19.476Z,2.07
2019-03-24T15:09:50.458Z,1.80
2019-03-24T15:12:21.408Z,2.10
2019-03-24T15:14:52.141Z,2.67
2019-03-24T15:17:23.133Z,2.37
2019-03-24T15:19:54.026Z,1.90
2019-03-24T15:22:24.984Z,2.10
2019-03-24T15:24:55.863Z,2.47
2019-03-24T15:27:26.895Z,2.63
2019-03-24T15:29:57.670Z,2.00
2019-03-24T15:32:28.364Z,2.33
2019-03-24T15:34:59.471Z,2.23
2019-03-24T15:37:30.434Z,2.13
2019-03-24T15:40:01.541Z,2.07
2019-03-24T15:42:32.593Z,2.53
2019-03-24T15:45:03.458Z,2.80
2019-03-24T15:47:34.382Z,2.30
2019-03-24T15:50:05.779Z,2.30
2019-03-24T15:52:36.938Z,2.83
2019-03-24T15:55:08.103Z,3.10
2019-03-24T15:57:39.064Z,2.77
2019-03-24T16:00:11.129Z,2.80
2019-03-24T16:02:41.871Z,2.90
2019-03-24T16:05:13.267Z,3.60
2019-03-24T16:07:44.411Z,2.40
2019-03-24T16:10:15.834Z,2.20
2019-03-24T16:12:46.829Z,2.90
2019-03-24T16:15:17.702Z,2.30
2019-03-24T16:17:48.995Z,2.30
2019-03-24T16:20:19.945Z,2.37
2019-03-24T16:22:51.101Z,3.07
2019-03-24T16:25:22.306Z,3.07
2019-03-24T16:27:53.378Z,4.30
2019-03-24T16:30:24.483Z,2.93
2019-03-24T16:32:55.379Z,2.30
2019-03-24T16:35:26.411Z,1.93
2019-03-24T16:37:57.357Z,2.27
2019-03-24T16:40:28.357Z,2.27
2019-03-24T16:42:59.681Z,2.47
2019-03-24T16:45:30.509Z,2.00
2019-03-24T16:48:01.433Z,2.07
2019-03-24T16:50:32.193Z,2.30
2019-03-24T16:53:02.902Z,2.47
2019-03-24T16:55:34.326Z,2.47
2019-03-24T16:58:05.340Z,2.40
2019-03-24T17:00:36.413Z,2.20
2019-03-24T17:03:07.699Z,2.10
2019-03-24T17:05:39.176Z,3.03
2019-03-24T17:08:10.122Z,2.13
2019-03-24T17:10:40.886Z,2.60
2019-03-24T17:13:12.052Z,2.70
2019-03-24T17:15:43.387Z,2.87
2019-03-24T17:18:14.829Z,2.60
2019-03-24T17:20:46.683Z,2.90
2019-03-24T17:23:19.616Z,2.70
2019-03-24T17:25:50.608Z,2.33
2019-03-24T17:28:21.663Z,2.87
2019-03-24T17:30:52.959Z,2.63
2019-03-24T17:33:24.028Z,2.93
2019-03-24T17:35:54.798Z,2.30
2019-03-24T17:38:25.639Z,2.50
2019-03-24T17:40:56.488Z,2.40
2019-03-24T17:43:27.749Z,3.27
2019-03-24T17:45:59.376Z,2.43
2019-03-24T17:48:30.288Z,2.90
2019-03-24T17:51:01.249Z,3.03
2019-03-24T17:53:32.189Z,3.10
2019-03-24T17:56:03.178Z,3.30
2019-03-24T17:58:34.162Z,3.07
2019-03-24T18:01:05.191Z,3.60
2019-03-24T18:03:36.587Z,3.60
2019-03-24T18:06:08.078Z,3.20
2019-03-24T18:08:39.089Z,3.63
2019-03-24T18:11:09.821Z,4.27
2019-03-24T18:13:40.504Z,4.53
2019-03-24T18:16:11.563Z,3.90
2019-03-24T18:18:43.004Z,5.13
2019-03-24T18:21:16.536Z,4.90
2019-03-24T18:23:47.125Z,4.97
2019-03-24T18:26:18.240Z,3.93
2019-03-24T18:28:48.979Z,4.27
2019-03-24T18:31:20.929Z,3.90
2019-03-24T18:33:52.039Z,4.20
2019-03-24T18:36:23.260Z,3.23
2019-03-24T18:38:54.344Z,3.10
2019-03-24T18:41:25.388Z,3.80
2019-03-24T18:43:56.109Z,3.43
2019-03-24T18:46:26.847Z,3.30
2019-03-24T18:48:57.653Z,3.07
2019-03-24T18:51:28.903Z,3.50
2019-03-24T18:53:59.827Z,5.63
2019-03-24T18:56:31.102Z,4.33
2019-03-24T18:59:02.180Z,4.00
2019-03-24T19:01:33.473Z,3.10
2019-03-24T19:04:04.365Z,3.40
2019-03-24T19:06:35.162Z,2.80
2019-03-24T19:09:08.847Z,3.40
2019-03-24T19:11:39.871Z,3.43
2019-03-24T19:14:11.567Z,3.83
2019-03-24T19:16:42.814Z,3.23
2019-03-24T19:19:13.555Z,3.07
2019-03-24T19:21:44.556Z,3.60
2019-03-24T19:24:15.632Z,3.23
2019-03-24T19:26:46.967Z,3.57
2019-03-24T19:29:19.469Z,3.57
2019-03-24T19:31:50.407Z,3.40
2019-03-24T19:34:21.428Z,3.43
2019-03-24T19:36:52.635Z,3.07
2019-03-24T19:39:23.720Z,3.43
2019-03-24T19:41:54.651Z,3.40
2019-03-24T19:44:25.428Z,3.30
2019-03-24T19:46:56.439Z,3.87
2019-03-24T19:49:27.424Z,2.57
2019-03-24T19:51:58.665Z,3.43
2019-03-24T19:54:29.435Z,4.10
2019-03-24T19:57:00.174Z,3.00
2019-03-24T19:59:30.889Z,3.03
2019-03-24T20:02:01.665Z,3.33
2019-03-24T20:04:32.395Z,3.97
2019-03-24T20:07:03.148Z,3.90
2019-03-24T20:09:33.840Z,2.90
2019-03-24T20:12:04.583Z,2.70
2019-03-24T20:14:35.324Z,3.10
2019-03-24T20:17:06.140Z,3.27
2019-03-24T20:19:36.856Z,3.00
2019-03-24T20:22:07.662Z,2.93
2019-03-24T20:24:38.356Z,3.73
2019-03-24T20:27:09.217Z,3.40
2019-03-24T20:29:39.939Z,3.47
2019-03-24T20:32:11.566Z,2.90
2019-03-24T20:34:42.268Z,3.30
2019-03-24T20:37:12.995Z,3.40
2019-03-24T20:39:43.810Z,4.30
2019-03-24T20:42:14.619Z,4.90
2019-03-24T20:44:45.408Z,3.70
2019-03-24T20:47:16.202Z,3.70
2019-03-24T20:49:47.871Z,3.40
2019-03-24T20:52:18.568Z,4.20
2019-03-24T20:54:49.265Z,4.57
2019-03-24T20:57:20.026Z,4.40
2019-03-24T20:59:52.050Z,4.10
2019-03-24T21:02:23.947Z,3.73
2019-03-24T21:04:54.709Z,3.83
2019-03-24T21:07:25.543Z,4.50
2019-03-24T21:09:56.404Z,4.77
2019-03-24T21:12:27.145Z,4.20
2019-03-24T21:14:57.948Z,3.57
2019-03-24T21:17:28.679Z,4.00
2019-03-24T21:19:59.415Z,4.60
2019-03-24T21:22:30.264Z,3.90
2019-03-24T21:25:00.936Z,4.70
2019-03-24T21:27:31.758Z,3.70
2019-03-24T21:30:02.517Z,4.53
2019-03-24T21:32:33.379Z,3.80
2019-03-24T21:35:04.370Z,3.90
2019-03-24T21:37:35.111Z,4.17
2019-03-24T21:40:06.992Z,4.40
2019-03-24T21:42:38.103Z,4.83
2019-03-24T21:45:09.964Z,5.27
2019-03-24T21:47:40.803Z,4.57
2019-03-24T21:50:12.547Z,4.50
2019-03-24T21:52:43.328Z,5.43
2019-03-24T21:55:14.088Z,4.17
2019-03-24T21:57:45.159Z,4.20
2019-03-24T22:00:19.440Z,4.70
2019-03-24T22:02:50.158Z,4.30
2019-03-24T22:05:20.852Z,4.77
2019-03-24T22:07:51.591Z,4.07
2019-03-24T22:10:22.365Z,5.43
2019-03-24T22:12:53.124Z,4.47
2019-03-24T22:15:23.842Z,4.37
2019-03-24T22:17:54.619Z,4.30
2019-03-24T22:20:25.328Z,4.40
2019-03-24T22:22:56.065Z,5.93
2019-03-24T22:25:26.848Z,5.33
2019-03-24T22:27:57.593Z,4.67
2019-03-24T22:30:29.379Z,4.73
2019-03-24T22:33:00.716Z,4.93
2019-03-24T22:35:31.399Z,4.27
2019-03-24T22:38:02.112Z,4.50
2019-03-24T22:40:32.819Z,5.17
2019-03-24T22:43:03.559Z,5.43
2019-03-24T22:45:34.279Z,4.67
2019-03-24T22:48:05.018Z,4.83
2019-03-24T22:50:35.704Z,4.70
2019-03-24T22:53:06.412Z,5.13
2019-03-24T22:55:37.115Z,5.27
2019-03-24T22:58:07.812Z,5.17
2019-03-24T23:00:55.071Z,4.97
2019-03-24T23:03:25.990Z,4.83
2019-03-24T23:05:57.714Z,4.67
2019-03-24T23:08:28.416Z,4.57
2019-03-24T23:10:59.125Z,4.20
2019-03-24T23:13:29.831Z,5.00
2019-03-24T23:16:01.567Z,5.40
2019-03-24T23:18:32.270Z,4.37
2019-03-24T23:21:02.952Z,4.00
2019-03-24T23:23:33.692Z,4.13
2019-03-24T23:26:04.362Z,4.60
2019-03-24T23:28:35.179Z,3.80
2019-03-24T23:31:05.855Z,4.73
2019-03-24T23:33:36.670Z,4.07
2019-03-24T23:36:07.367Z,3.73
2019-03-24T23:38:38.085Z,3.90
2019-03-24T23:41:08.837Z,5.00
2019-03-24T23:43:39.552Z,4.33
2019-03-24T23:46:10.347Z,4.20
2019-03-24T23:48:41.057Z,3.70
2019-03-24T23:51:11.736Z,3.67
2019-03-24T23:53:42.431Z,4.07
2019-03-24T23:56:13.132Z,4.03
2019-03-24T23:58:43.819Z,4.17
